sensor_id;sensor_type;location;lat;lon;timestamp;P1;durP1;ratioP1;P2;durP2;ratioP2
18857;SDS011;9558;50.178;8.370;2023-04-07T00:02:19;4.95;;;3.55;;
18857;SDS011;9558;50.178;8.370;2023-04-07T00:05:06;10.95;;;4.47;;
18857;SDS011;9558;50.178;8.370;2023-04-07T00:07:53;4.38;;;2.88;;
18857;SDS011;9558;50.178;8.370;2023-04-07T00:13:27;8.48;;;4.78;;
18857;SDS011;9558;50.178;8.370;2023-04-07T00:16:13;7.22;;;3.88;;
18857;SDS011;9558;50.178;8.370;2023-04-07T00:19:01;7.60;;;4.20;;
18857;SDS011;9558;50.178;8.370;2023-04-07T00:21:48;8.63;;;4.78;;
18857;SDS011;9558;50.178;8.370;2023-04-07T00:24:35;9.50;;;5.00;;
18857;SDS011;9558;50.178;8.370;2023-04-07T00:27:22;9.40;;;4.72;;
18857;SDS011;9558;50.178;8.370;2023-04-07T00:30:08;9.77;;;4.82;;
18857;SDS011;9558;50.178;8.370;2023-04-07T00:32:55;12.85;;;5.15;;
18857;SDS011;9558;50.178;8.370;2023-04-07T00:35:44;5.30;;;3.60;;
18857;SDS011;9558;50.178;8.370;2023-04-07T00:38:30;7.20;;;4.95;;
18857;SDS011;9558;50.178;8.370;2023-04-07T00:41:17;8.93;;;4.95;;
18857;SDS011;9558;50.178;8.370;2023-04-07T00:44:04;11.55;;;4.93;;
18857;SDS011;9558;50.178;8.370;2023-04-07T00:46:50;12.48;;;5.68;;
18857;SDS011;9558;50.178;8.370;2023-04-07T00:49:37;12.20;;;5.20;;
18857;SDS011;9558;50.178;8.370;2023-04-07T00:55:14;22.20;;;5.43;;
18857;SDS011;9558;50.178;8.370;2023-04-07T00:58:01;8.13;;;4.40;;
18857;SDS011;9558;50.178;8.370;2023-04-07T01:00:50;8.63;;;5.55;;
18857;SDS011;9558;50.178;8.370;2023-04-07T01:03:43;6.00;;;4.53;;
18857;SDS011;9558;50.178;8.370;2023-04-07T01:06:35;15.77;;;6.68;;
18857;SDS011;9558;50.178;8.370;2023-04-07T01:09:33;16.00;;;6.68;;
18857;SDS011;9558;50.178;8.370;2023-04-07T01:12:24;14.38;;;7.50;;
18857;SDS011;9558;50.178;8.370;2023-04-07T01:15:20;17.75;;;7.75;;
18857;SDS011;9558;50.178;8.370;2023-04-07T01:18:11;14.00;;;7.00;;
18857;SDS011;9558;50.178;8.370;2023-04-07T01:21:02;13.57;;;6.80;;
18857;SDS011;9558;50.178;8.370;2023-04-07T01:23:56;10.57;;;5.78;;
18857;SDS011;9558;50.178;8.370;2023-04-07T01:29:45;11.90;;;6.07;;
18857;SDS011;9558;50.178;8.370;2023-04-07T01:32:34;13.65;;;6.28;;
18857;SDS011;9558;50.178;8.370;2023-04-07T01:35:23;18.10;;;8.32;;
18857;SDS011;9558;50.178;8.370;2023-04-07T01:38:12;13.93;;;6.30;;
18857;SDS011;9558;50.178;8.370;2023-04-07T01:41:00;14.75;;;7.07;;
18857;SDS011;9558;50.178;8.370;2023-04-07T01:43:48;13.77;;;7.50;;
18857;SDS011;9558;50.178;8.370;2023-04-07T01:46:38;16.23;;;6.55;;
18857;SDS011;9558;50.178;8.370;2023-04-07T01:49:25;10.90;;;6.03;;
18857;SDS011;9558;50.178;8.370;2023-04-07T01:52:14;13.80;;;6.88;;
18857;SDS011;9558;50.178;8.370;2023-04-07T01:55:02;10.05;;;6.03;;
18857;SDS011;9558;50.178;8.370;2023-04-07T01:57:52;10.48;;;6.43;;
18857;SDS011;9558;50.178;8.370;2023-04-07T02:00:38;12.27;;;6.72;;
18857;SDS011;9558;50.178;8.370;2023-04-07T02:03:28;15.77;;;7.22;;
18857;SDS011;9558;50.178;8.370;2023-04-07T02:06:21;19.17;;;8.38;;
18857;SDS011;9558;50.178;8.370;2023-04-07T02:09:12;9.13;;;6.45;;
18857;SDS011;9558;50.178;8.370;2023-04-07T02:12:02;15.13;;;8.25;;
18857;SDS011;9558;50.178;8.370;2023-04-07T02:14:52;13.02;;;5.85;;
18857;SDS011;9558;50.178;8.370;2023-04-07T02:17:41;19.05;;;7.35;;
18857;SDS011;9558;50.178;8.370;2023-04-07T02:20:33;14.82;;;6.32;;
18857;SDS011;9558;50.178;8.370;2023-04-07T02:23:22;12.48;;;6.68;;
18857;SDS011;9558;50.178;8.370;2023-04-07T02:28:56;9.82;;;4.88;;
18857;SDS011;9558;50.178;8.370;2023-04-07T02:34:29;10.68;;;5.30;;
18857;SDS011;9558;50.178;8.370;2023-04-07T02:40:06;11.45;;;5.65;;
18857;SDS011;9558;50.178;8.370;2023-04-07T02:42:53;13.32;;;6.85;;
18857;SDS011;9558;50.178;8.370;2023-04-07T02:48:26;10.48;;;6.07;;
18857;SDS011;9558;50.178;8.370;2023-04-07T02:54:01;14.10;;;5.88;;
18857;SDS011;9558;50.178;8.370;2023-04-07T02:56:48;11.63;;;6.00;;
18857;SDS011;9558;50.178;8.370;2023-04-07T03:02:21;16.13;;;7.25;;
18857;SDS011;9558;50.178;8.370;2023-04-07T03:07:55;8.10;;;4.68;;
18857;SDS011;9558;50.178;8.370;2023-04-07T03:10:43;9.20;;;4.85;;
18857;SDS011;9558;50.178;8.370;2023-04-07T03:13:30;11.32;;;5.70;;
18857;SDS011;9558;50.178;8.370;2023-04-07T03:19:03;3.72;;;2.60;;
18857;SDS011;9558;50.178;8.370;2023-04-07T03:21:50;8.63;;;5.38;;
18857;SDS011;9558;50.178;8.370;2023-04-07T03:27:26;10.82;;;5.43;;
18857;SDS011;9558;50.178;8.370;2023-04-07T03:30:13;7.72;;;4.43;;
18857;SDS011;9558;50.178;8.370;2023-04-07T03:33:00;7.55;;;4.43;;
18857;SDS011;9558;50.178;8.370;2023-04-07T03:38:33;12.02;;;6.18;;
18857;SDS011;9558;50.178;8.370;2023-04-07T03:44:08;10.73;;;4.25;;
18857;SDS011;9558;50.178;8.370;2023-04-07T03:46:55;9.55;;;5.90;;
18857;SDS011;9558;50.178;8.370;2023-04-07T03:49:42;10.05;;;6.32;;
18857;SDS011;9558;50.178;8.370;2023-04-07T03:52:29;9.82;;;6.25;;
18857;SDS011;9558;50.178;8.370;2023-04-07T03:55:16;12.30;;;5.57;;
18857;SDS011;9558;50.178;8.370;2023-04-07T03:58:03;11.00;;;5.57;;
18857;SDS011;9558;50.178;8.370;2023-04-07T04:00:54;10.93;;;5.43;;
18857;SDS011;9558;50.178;8.370;2023-04-07T04:03:40;11.88;;;5.80;;
18857;SDS011;9558;50.178;8.370;2023-04-07T04:06:27;13.88;;;6.05;;
18857;SDS011;9558;50.178;8.370;2023-04-07T04:09:16;11.30;;;6.15;;
18857;SDS011;9558;50.178;8.370;2023-04-07T04:12:03;14.98;;;7.30;;
18857;SDS011;9558;50.178;8.370;2023-04-07T04:14:50;17.05;;;4.68;;
18857;SDS011;9558;50.178;8.370;2023-04-07T04:20:24;10.18;;;5.32;;
18857;SDS011;9558;50.178;8.370;2023-04-07T04:25:58;16.05;;;7.15;;
18857;SDS011;9558;50.178;8.370;2023-04-07T04:28:48;12.50;;;6.72;;
18857;SDS011;9558;50.178;8.370;2023-04-07T04:31:34;12.10;;;6.53;;
18857;SDS011;9558;50.178;8.370;2023-04-07T04:34:22;12.00;;;5.80;;
18857;SDS011;9558;50.178;8.370;2023-04-07T04:37:09;11.93;;;6.53;;
18857;SDS011;9558;50.178;8.370;2023-04-07T04:39:56;10.52;;;6.80;;
18857;SDS011;9558;50.178;8.370;2023-04-07T04:42:43;13.20;;;6.25;;
18857;SDS011;9558;50.178;8.370;2023-04-07T04:48:16;11.35;;;6.07;;
18857;SDS011;9558;50.178;8.370;2023-04-07T04:51:05;12.60;;;5.68;;
18857;SDS011;9558;50.178;8.370;2023-04-07T04:53:52;10.48;;;6.50;;
18857;SDS011;9558;50.178;8.370;2023-04-07T04:56:39;11.85;;;5.88;;
18857;SDS011;9558;50.178;8.370;2023-04-07T04:59:27;10.85;;;6.05;;
18857;SDS011;9558;50.178;8.370;2023-04-07T05:02:13;12.20;;;6.35;;
18857;SDS011;9558;50.178;8.370;2023-04-07T05:07:48;8.48;;;4.47;;
18857;SDS011;9558;50.178;8.370;2023-04-07T05:10:36;13.10;;;6.63;;
18857;SDS011;9558;50.178;8.370;2023-04-07T05:13:23;12.23;;;6.70;;
18857;SDS011;9558;50.178;8.370;2023-04-07T05:16:10;12.93;;;7.30;;
18857;SDS011;9558;50.178;8.370;2023-04-07T05:18:58;19.02;;;7.13;;
18857;SDS011;9558;50.178;8.370;2023-04-07T05:24:32;9.40;;;5.90;;
18857;SDS011;9558;50.178;8.370;2023-04-07T05:27:19;12.70;;;6.40;;
18857;SDS011;9558;50.178;8.370;2023-04-07T05:30:06;11.95;;;5.47;;
18857;SDS011;9558;50.178;8.370;2023-04-07T05:32:54;10.65;;;5.82;;
18857;SDS011;9558;50.178;8.370;2023-04-07T05:38:29;10.52;;;6.30;;
18857;SDS011;9558;50.178;8.370;2023-04-07T05:44:04;12.32;;;5.97;;
18857;SDS011;9558;50.178;8.370;2023-04-07T05:46:51;8.40;;;4.90;;
18857;SDS011;9558;50.178;8.370;2023-04-07T05:52:30;9.65;;;4.50;;
18857;SDS011;9558;50.178;8.370;2023-04-07T05:58:04;12.48;;;5.00;;
18857;SDS011;9558;50.178;8.370;2023-04-07T06:00:51;13.00;;;5.45;;
18857;SDS011;9558;50.178;8.370;2023-04-07T06:06:25;11.90;;;4.95;;
18857;SDS011;9558;50.178;8.370;2023-04-07T06:09:13;13.65;;;7.90;;
18857;SDS011;9558;50.178;8.370;2023-04-07T06:14:51;11.93;;;6.07;;
18857;SDS011;9558;50.178;8.370;2023-04-07T06:17:39;17.52;;;6.35;;
18857;SDS011;9558;50.178;8.370;2023-04-07T06:20:28;15.10;;;6.20;;
18857;SDS011;9558;50.178;8.370;2023-04-07T06:23:15;18.58;;;7.45;;
18857;SDS011;9558;50.178;8.370;2023-04-07T06:28:48;13.75;;;6.47;;
18857;SDS011;9558;50.178;8.370;2023-04-07T06:31:37;15.82;;;7.75;;
18857;SDS011;9558;50.178;8.370;2023-04-07T06:34:24;13.77;;;7.18;;
18857;SDS011;9558;50.178;8.370;2023-04-07T06:39:57;12.63;;;6.75;;
18857;SDS011;9558;50.178;8.370;2023-04-07T06:45:30;13.45;;;4.70;;
18857;SDS011;9558;50.178;8.370;2023-04-07T06:51:05;14.98;;;7.93;;
18857;SDS011;9558;50.178;8.370;2023-04-07T06:53:52;16.45;;;8.30;;
18857;SDS011;9558;50.178;8.370;2023-04-07T06:59:25;12.63;;;7.13;;
18857;SDS011;9558;50.178;8.370;2023-04-07T07:05:00;12.00;;;6.78;;
18857;SDS011;9558;50.178;8.370;2023-04-07T07:07:48;20.80;;;7.45;;
18857;SDS011;9558;50.178;8.370;2023-04-07T07:13:22;19.00;;;9.88;;
18857;SDS011;9558;50.178;8.370;2023-04-07T07:16:10;13.95;;;5.65;;
18857;SDS011;9558;50.178;8.370;2023-04-07T07:18:57;12.23;;;5.88;;
18857;SDS011;9558;50.178;8.370;2023-04-07T07:21:46;15.63;;;5.97;;
18857;SDS011;9558;50.178;8.370;2023-04-07T07:24:33;10.45;;;5.00;;
18857;SDS011;9558;50.178;8.370;2023-04-07T07:30:06;11.90;;;5.00;;
18857;SDS011;9558;50.178;8.370;2023-04-07T07:32:54;14.65;;;8.00;;
18857;SDS011;9558;50.178;8.370;2023-04-07T07:35:41;12.23;;;5.13;;
18857;SDS011;9558;50.178;8.370;2023-04-07T07:38:29;9.52;;;5.28;;
18857;SDS011;9558;50.178;8.370;2023-04-07T07:41:16;15.88;;;7.18;;
18857;SDS011;9558;50.178;8.370;2023-04-07T07:46:49;10.45;;;3.80;;
18857;SDS011;9558;50.178;8.370;2023-04-07T07:49:36;8.75;;;5.15;;
18857;SDS011;9558;50.178;8.370;2023-04-07T07:52:23;13.25;;;5.65;;
18857;SDS011;9558;50.178;8.370;2023-04-07T07:55:11;8.98;;;4.85;;
18857;SDS011;9558;50.178;8.370;2023-04-07T07:57:58;8.50;;;4.25;;
18857;SDS011;9558;50.178;8.370;2023-04-07T08:00:45;7.80;;;4.55;;
18857;SDS011;9558;50.178;8.370;2023-04-07T08:06:18;7.75;;;4.15;;
18857;SDS011;9558;50.178;8.370;2023-04-07T08:09:06;15.85;;;7.53;;
18857;SDS011;9558;50.178;8.370;2023-04-07T08:14:40;7.68;;;4.38;;
18857;SDS011;9558;50.178;8.370;2023-04-07T08:17:27;7.00;;;4.03;;
18857;SDS011;9558;50.178;8.370;2023-04-07T08:20:15;7.65;;;4.40;;
18857;SDS011;9558;50.178;8.370;2023-04-07T08:25:48;7.80;;;3.33;;
18857;SDS011;9558;50.178;8.370;2023-04-07T08:28:36;7.35;;;4.18;;
18857;SDS011;9558;50.178;8.370;2023-04-07T08:31:23;9.20;;;4.95;;
18857;SDS011;9558;50.178;8.370;2023-04-07T08:34:10;6.50;;;4.28;;
18857;SDS011;9558;50.178;8.370;2023-04-07T08:36:58;8.88;;;4.22;;
18857;SDS011;9558;50.178;8.370;2023-04-07T08:42:32;3.60;;;2.58;;
18857;SDS011;9558;50.178;8.370;2023-04-07T08:45:24;7.30;;;3.90;;
18857;SDS011;9558;50.178;8.370;2023-04-07T08:48:13;4.72;;;2.97;;
18857;SDS011;9558;50.178;8.370;2023-04-07T08:51:03;6.80;;;3.70;;
18857;SDS011;9558;50.178;8.370;2023-04-07T08:53:51;5.75;;;3.85;;
18857;SDS011;9558;50.178;8.370;2023-04-07T08:56:40;7.03;;;4.22;;
18857;SDS011;9558;50.178;8.370;2023-04-07T08:59:27;5.68;;;3.17;;
18857;SDS011;9558;50.178;8.370;2023-04-07T09:02:17;8.82;;;4.05;;
18857;SDS011;9558;50.178;8.370;2023-04-07T09:05:06;6.80;;;3.97;;
18857;SDS011;9558;50.178;8.370;2023-04-07T09:07:54;8.73;;;3.75;;
18857;SDS011;9558;50.178;8.370;2023-04-07T09:10:40;5.13;;;2.97;;
18857;SDS011;9558;50.178;8.370;2023-04-07T09:13:27;6.63;;;3.45;;
18857;SDS011;9558;50.178;8.370;2023-04-07T09:16:15;5.47;;;3.53;;
18857;SDS011;9558;50.178;8.370;2023-04-07T09:19:03;5.53;;;3.50;;
18857;SDS011;9558;50.178;8.370;2023-04-07T09:21:51;3.85;;;2.83;;
18857;SDS011;9558;50.178;8.370;2023-04-07T09:24:39;5.22;;;3.00;;
18857;SDS011;9558;50.178;8.370;2023-04-07T09:27:27;7.72;;;2.78;;
18857;SDS011;9558;50.178;8.370;2023-04-07T09:33:01;4.68;;;2.80;;
18857;SDS011;9558;50.178;8.370;2023-04-07T09:35:51;5.80;;;2.50;;
18857;SDS011;9558;50.178;8.370;2023-04-07T09:38:38;8.05;;;3.58;;
18857;SDS011;9558;50.178;8.370;2023-04-07T09:41:26;5.95;;;3.38;;
18857;SDS011;9558;50.178;8.370;2023-04-07T09:44:13;4.72;;;3.13;;
18857;SDS011;9558;50.178;8.370;2023-04-07T09:47:00;6.53;;;2.28;;
18857;SDS011;9558;50.178;8.370;2023-04-07T09:49:47;4.63;;;2.70;;
18857;SDS011;9558;50.178;8.370;2023-04-07T09:52:50;6.10;;;2.85;;
18857;SDS011;9558;50.178;8.370;2023-04-07T09:55:38;8.25;;;3.47;;
18857;SDS011;9558;50.178;8.370;2023-04-07T09:58:25;7.03;;;3.30;;
18857;SDS011;9558;50.178;8.370;2023-04-07T10:01:13;6.25;;;3.78;;
18857;SDS011;9558;50.178;8.370;2023-04-07T10:04:01;13.88;;;5.93;;
18857;SDS011;9558;50.178;8.370;2023-04-07T10:06:49;10.10;;;5.15;;
18857;SDS011;9558;50.178;8.370;2023-04-07T10:09:39;4.40;;;2.88;;
18857;SDS011;9558;50.178;8.370;2023-04-07T10:12:28;8.98;;;4.07;;
18857;SDS011;9558;50.178;8.370;2023-04-07T10:15:15;7.22;;;3.17;;
18857;SDS011;9558;50.178;8.370;2023-04-07T10:18:02;6.78;;;3.45;;
18857;SDS011;9558;50.178;8.370;2023-04-07T10:20:52;6.85;;;3.58;;
18857;SDS011;9558;50.178;8.370;2023-04-07T10:23:44;4.85;;;3.03;;
18857;SDS011;9558;50.178;8.370;2023-04-07T10:26:38;4.22;;;2.72;;
18857;SDS011;9558;50.178;8.370;2023-04-07T10:29:26;6.95;;;2.47;;
18857;SDS011;9558;50.178;8.370;2023-04-07T10:32:16;4.28;;;2.70;;
18857;SDS011;9558;50.178;8.370;2023-04-07T10:35:03;6.03;;;2.50;;
18857;SDS011;9558;50.178;8.370;2023-04-07T10:38:08;4.47;;;3.00;;
18857;SDS011;9558;50.178;8.370;2023-04-07T10:40:57;5.47;;;3.30;;
18857;SDS011;9558;50.178;8.370;2023-04-07T10:43:45;5.35;;;3.03;;
18857;SDS011;9558;50.178;8.370;2023-04-07T10:53:06;4.90;;;2.55;;
18857;SDS011;9558;50.178;8.370;2023-04-07T10:55:54;4.75;;;2.78;;
18857;SDS011;9558;50.178;8.370;2023-04-07T10:58:41;3.65;;;2.05;;
18857;SDS011;9558;50.178;8.370;2023-04-07T11:01:29;2.90;;;1.77;;
18857;SDS011;9558;50.178;8.370;2023-04-07T11:04:16;4.13;;;2.10;;
18857;SDS011;9558;50.178;8.370;2023-04-07T11:07:02;3.47;;;1.95;;
18857;SDS011;9558;50.178;8.370;2023-04-07T11:09:49;3.55;;;1.95;;
18857;SDS011;9558;50.178;8.370;2023-04-07T11:12:36;3.03;;;1.63;;
18857;SDS011;9558;50.178;8.370;2023-04-07T11:15:23;2.58;;;1.73;;
18857;SDS011;9558;50.178;8.370;2023-04-07T11:18:12;2.88;;;1.88;;
18857;SDS011;9558;50.178;8.370;2023-04-07T11:21:03;2.55;;;1.73;;
18857;SDS011;9558;50.178;8.370;2023-04-07T11:23:51;2.33;;;1.70;;
18857;SDS011;9558;50.178;8.370;2023-04-07T11:26:38;2.10;;;1.30;;
18857;SDS011;9558;50.178;8.370;2023-04-07T11:29:26;1.65;;;1.30;;
18857;SDS011;9558;50.178;8.370;2023-04-07T11:32:13;1.90;;;1.13;;
18857;SDS011;9558;50.178;8.370;2023-04-07T11:35:02;2.40;;;1.20;;
18857;SDS011;9558;50.178;8.370;2023-04-07T11:37:56;1.95;;;1.05;;
18857;SDS011;9558;50.178;8.370;2023-04-07T11:40:45;1.90;;;1.38;;
18857;SDS011;9558;50.178;8.370;2023-04-07T11:43:32;1.42;;;0.70;;
18857;SDS011;9558;50.178;8.370;2023-04-07T11:46:20;0.50;;;0.47;;
18857;SDS011;9558;50.178;8.370;2023-04-07T11:49:08;0.73;;;0.40;;
18857;SDS011;9558;50.178;8.370;2023-04-07T11:51:59;0.93;;;0.52;;
18857;SDS011;9558;50.178;8.370;2023-04-07T11:54:47;1.52;;;1.08;;
18857;SDS011;9558;50.178;8.370;2023-04-07T11:57:34;1.27;;;0.80;;
18857;SDS011;9558;50.178;8.370;2023-04-07T12:00:22;0.73;;;0.63;;
18857;SDS011;9558;50.178;8.370;2023-04-07T12:03:09;0.40;;;0.40;;
18857;SDS011;9558;50.178;8.370;2023-04-07T12:05:58;0.50;;;0.50;;
18857;SDS011;9558;50.178;8.370;2023-04-07T12:08:47;0.55;;;0.40;;
18857;SDS011;9558;50.178;8.370;2023-04-07T12:11:34;0.40;;;0.40;;
18857;SDS011;9558;50.178;8.370;2023-04-07T12:14:21;2.72;;;0.50;;
18857;SDS011;9558;50.178;8.370;2023-04-07T12:17:18;0.88;;;0.77;;
18857;SDS011;9558;50.178;8.370;2023-04-07T12:20:06;0.68;;;0.57;;
18857;SDS011;9558;50.178;8.370;2023-04-07T12:22:54;0.50;;;0.40;;
18857;SDS011;9558;50.178;8.370;2023-04-07T12:25:42;1.15;;;0.45;;
18857;SDS011;9558;50.178;8.370;2023-04-07T12:28:29;0.57;;;0.40;;
18857;SDS011;9558;50.178;8.370;2023-04-07T12:31:16;0.68;;;0.30;;
18857;SDS011;9558;50.178;8.370;2023-04-07T12:34:02;2.50;;;0.50;;
18857;SDS011;9558;50.178;8.370;2023-04-07T12:36:49;1.70;;;1.02;;
18857;SDS011;9558;50.178;8.370;2023-04-07T12:39:36;1.33;;;1.00;;
18857;SDS011;9558;50.178;8.370;2023-04-07T12:42:24;1.63;;;1.20;;
18857;SDS011;9558;50.178;8.370;2023-04-07T12:45:11;0.90;;;0.90;;
18857;SDS011;9558;50.178;8.370;2023-04-07T12:47:58;2.88;;;1.30;;
18857;SDS011;9558;50.178;8.370;2023-04-07T12:50:45;1.80;;;1.45;;
18857;SDS011;9558;50.178;8.370;2023-04-07T12:53:32;1.58;;;1.30;;
18857;SDS011;9558;50.178;8.370;2023-04-07T12:56:18;1.00;;;0.90;;
18857;SDS011;9558;50.178;8.370;2023-04-07T12:59:08;1.90;;;1.38;;
18857;SDS011;9558;50.178;8.370;2023-04-07T13:01:54;1.45;;;0.90;;
18857;SDS011;9558;50.178;8.370;2023-04-07T13:04:41;0.88;;;0.73;;
18857;SDS011;9558;50.178;8.370;2023-04-07T13:07:30;1.70;;;1.10;;
18857;SDS011;9558;50.178;8.370;2023-04-07T13:10:19;2.75;;;1.95;;
18857;SDS011;9558;50.178;8.370;2023-04-07T13:13:06;0.80;;;0.80;;
18857;SDS011;9558;50.178;8.370;2023-04-07T13:15:54;1.42;;;1.05;;
18857;SDS011;9558;50.178;8.370;2023-04-07T13:18:40;5.65;;;2.25;;
18857;SDS011;9558;50.178;8.370;2023-04-07T13:21:27;1.00;;;0.60;;
18857;SDS011;9558;50.178;8.370;2023-04-07T13:24:14;1.20;;;0.80;;
18857;SDS011;9558;50.178;8.370;2023-04-07T13:27:01;0.50;;;0.50;;
18857;SDS011;9558;50.178;8.370;2023-04-07T13:29:48;1.35;;;0.95;;
18857;SDS011;9558;50.178;8.370;2023-04-07T13:32:36;1.20;;;1.10;;
18857;SDS011;9558;50.178;8.370;2023-04-07T13:35:23;1.42;;;0.90;;
18857;SDS011;9558;50.178;8.370;2023-04-07T13:38:09;2.33;;;1.30;;
18857;SDS011;9558;50.178;8.370;2023-04-07T13:40:56;2.90;;;1.60;;
18857;SDS011;9558;50.178;8.370;2023-04-07T13:43:43;1.10;;;1.00;;
18857;SDS011;9558;50.178;8.370;2023-04-07T13:46:30;0.68;;;0.43;;
18857;SDS011;9558;50.178;8.370;2023-04-07T13:49:18;0.47;;;0.30;;
18857;SDS011;9558;50.178;8.370;2023-04-07T13:52:05;0.75;;;0.55;;
18857;SDS011;9558;50.178;8.370;2023-04-07T13:54:52;0.70;;;0.50;;
18857;SDS011;9558;50.178;8.370;2023-04-07T13:57:38;0.65;;;0.65;;
18857;SDS011;9558;50.178;8.370;2023-04-07T14:00:25;0.50;;;0.30;;
18857;SDS011;9558;50.178;8.370;2023-04-07T14:03:12;0.32;;;0.30;;
18857;SDS011;9558;50.178;8.370;2023-04-07T14:06:01;0.70;;;0.70;;
18857;SDS011;9558;50.178;8.370;2023-04-07T14:08:48;0.50;;;0.43;;
18857;SDS011;9558;50.178;8.370;2023-04-07T14:11:35;0.30;;;0.30;;
18857;SDS011;9558;50.178;8.370;2023-04-07T14:14:22;0.50;;;0.50;;
18857;SDS011;9558;50.178;8.370;2023-04-07T14:17:09;0.60;;;0.35;;
18857;SDS011;9558;50.178;8.370;2023-04-07T14:19:55;0.45;;;0.40;;
18857;SDS011;9558;50.178;8.370;2023-04-07T14:22:43;0.40;;;0.40;;
18857;SDS011;9558;50.178;8.370;2023-04-07T14:25:30;0.20;;;0.20;;
18857;SDS011;9558;50.178;8.370;2023-04-07T14:28:17;0.52;;;0.30;;
18857;SDS011;9558;50.178;8.370;2023-04-07T14:31:04;0.52;;;0.52;;
18857;SDS011;9558;50.178;8.370;2023-04-07T14:33:51;0.50;;;0.30;;
18857;SDS011;9558;50.178;8.370;2023-04-07T14:36:38;0.77;;;0.32;;
18857;SDS011;9558;50.178;8.370;2023-04-07T14:39:26;0.30;;;0.30;;
18857;SDS011;9558;50.178;8.370;2023-04-07T14:42:13;0.73;;;0.50;;
18857;SDS011;9558;50.178;8.370;2023-04-07T14:45:00;0.20;;;0.20;;
18857;SDS011;9558;50.178;8.370;2023-04-07T14:47:47;0.40;;;0.35;;
18857;SDS011;9558;50.178;8.370;2023-04-07T14:50:34;2.45;;;0.60;;
18857;SDS011;9558;50.178;8.370;2023-04-07T14:53:21;0.50;;;0.45;;
18857;SDS011;9558;50.178;8.370;2023-04-07T14:56:09;0.47;;;0.30;;
18857;SDS011;9558;50.178;8.370;2023-04-07T14:58:55;0.68;;;0.32;;
18857;SDS011;9558;50.178;8.370;2023-04-07T15:01:42;0.10;;;0.10;;
18857;SDS011;9558;50.178;8.370;2023-04-07T15:04:29;0.30;;;0.10;;
18857;SDS011;9558;50.178;8.370;2023-04-07T15:07:16;0.50;;;0.38;;
18857;SDS011;9558;50.178;8.370;2023-04-07T15:10:03;0.22;;;0.20;;
18857;SDS011;9558;50.178;8.370;2023-04-07T15:12:52;0.22;;;0.20;;
18857;SDS011;9558;50.178;8.370;2023-04-07T15:15:38;0.20;;;0.20;;
18857;SDS011;9558;50.178;8.370;2023-04-07T15:18:25;0.08;;;0.08;;
18857;SDS011;9558;50.178;8.370;2023-04-07T15:21:12;0.10;;;0.10;;
18857;SDS011;9558;50.178;8.370;2023-04-07T15:24:00;0.30;;;0.30;;
18857;SDS011;9558;50.178;8.370;2023-04-07T15:26:47;0.20;;;0.10;;
18857;SDS011;9558;50.178;8.370;2023-04-07T15:29:35;0.28;;;0.28;;
18857;SDS011;9558;50.178;8.370;2023-04-07T15:32:23;0.70;;;0.30;;
18857;SDS011;9558;50.178;8.370;2023-04-07T15:35:09;2.05;;;0.30;;
18857;SDS011;9558;50.178;8.370;2023-04-07T15:37:56;0.20;;;0.20;;
18857;SDS011;9558;50.178;8.370;2023-04-07T15:40:43;0.40;;;0.40;;
18857;SDS011;9558;50.178;8.370;2023-04-07T15:43:30;0.35;;;0.25;;
18857;SDS011;9558;50.178;8.370;2023-04-07T15:46:18;0.30;;;0.10;;
18857;SDS011;9558;50.178;8.370;2023-04-07T15:49:05;0.65;;;0.30;;
18857;SDS011;9558;50.178;8.370;2023-04-07T15:51:51;0.03;;;0.03;;
18857;SDS011;9558;50.178;8.370;2023-04-07T15:54:38;0.15;;;0.15;;
18857;SDS011;9558;50.178;8.370;2023-04-07T15:57:25;0.13;;;0.13;;
18857;SDS011;9558;50.178;8.370;2023-04-07T16:00:12;0.38;;;0.20;;
18857;SDS011;9558;50.178;8.370;2023-04-07T16:03:01;0.20;;;0.10;;
18857;SDS011;9558;50.178;8.370;2023-04-07T16:05:48;0.25;;;0.20;;
18857;SDS011;9558;50.178;8.370;2023-04-07T16:08:35;0.20;;;0.10;;
18857;SDS011;9558;50.178;8.370;2023-04-07T16:11:22;0.03;;;0.03;;
18857;SDS011;9558;50.178;8.370;2023-04-07T16:14:08;0.10;;;0.10;;
18857;SDS011;9558;50.178;8.370;2023-04-07T16:16:55;0.10;;;0.10;;
18857;SDS011;9558;50.178;8.370;2023-04-07T16:19:44;0.20;;;0.20;;
18857;SDS011;9558;50.178;8.370;2023-04-07T16:22:31;0.20;;;0.10;;
18857;SDS011;9558;50.178;8.370;2023-04-07T16:25:17;0.05;;;0.00;;
18857;SDS011;9558;50.178;8.370;2023-04-07T16:28:04;0.22;;;0.10;;
18857;SDS011;9558;50.178;8.370;2023-04-07T16:30:51;0.10;;;0.10;;
18857;SDS011;9558;50.178;8.370;2023-04-07T16:33:38;1.05;;;0.20;;
18857;SDS011;9558;50.178;8.370;2023-04-07T16:36:26;0.90;;;0.38;;
18857;SDS011;9558;50.178;8.370;2023-04-07T16:39:13;0.55;;;0.20;;
18857;SDS011;9558;50.178;8.370;2023-04-07T16:42:00;0.08;;;0.08;;
18857;SDS011;9558;50.178;8.370;2023-04-07T16:44:46;0.28;;;0.20;;
18857;SDS011;9558;50.178;8.370;2023-04-07T16:47:33;0.10;;;0.10;;
18857;SDS011;9558;50.178;8.370;2023-04-07T16:50:20;0.10;;;0.10;;
18857;SDS011;9558;50.178;8.370;2023-04-07T16:53:08;0.55;;;0.30;;
18857;SDS011;9558;50.178;8.370;2023-04-07T16:55:55;0.15;;;0.15;;
18857;SDS011;9558;50.178;8.370;2023-04-07T16:58:42;0.30;;;0.30;;
18857;SDS011;9558;50.178;8.370;2023-04-07T17:01:28;0.80;;;0.20;;
18857;SDS011;9558;50.178;8.370;2023-04-07T17:04:15;0.15;;;0.15;;
18857;SDS011;9558;50.178;8.370;2023-04-07T17:07:02;0.10;;;0.10;;
18857;SDS011;9558;50.178;8.370;2023-04-07T17:09:50;0.20;;;0.20;;
18857;SDS011;9558;50.178;8.370;2023-04-07T17:12:37;0.45;;;0.30;;
18857;SDS011;9558;50.178;8.370;2023-04-07T17:15:24;1.10;;;0.30;;
18857;SDS011;9558;50.178;8.370;2023-04-07T17:18:11;0.10;;;0.00;;
18857;SDS011;9558;50.178;8.370;2023-04-07T17:20:57;0.28;;;0.20;;
18857;SDS011;9558;50.178;8.370;2023-04-07T17:23:44;0.25;;;0.20;;
18857;SDS011;9558;50.178;8.370;2023-04-07T17:26:33;0.40;;;0.30;;
18857;SDS011;9558;50.178;8.370;2023-04-07T17:29:19;0.60;;;0.32;;
18857;SDS011;9558;50.178;8.370;2023-04-07T17:32:13;0.10;;;0.10;;
18857;SDS011;9558;50.178;8.370;2023-04-07T17:34:59;0.63;;;0.57;;
18857;SDS011;9558;50.178;8.370;2023-04-07T17:37:46;0.20;;;0.20;;
18857;SDS011;9558;50.178;8.370;2023-04-07T17:40:33;1.00;;;0.13;;
18857;SDS011;9558;50.178;8.370;2023-04-07T17:43:21;0.13;;;0.13;;
18857;SDS011;9558;50.178;8.370;2023-04-07T17:46:08;0.20;;;0.20;;
18857;SDS011;9558;50.178;8.370;2023-04-07T17:48:54;0.08;;;0.00;;
18857;SDS011;9558;50.178;8.370;2023-04-07T17:51:43;0.10;;;0.10;;
18857;SDS011;9558;50.178;8.370;2023-04-07T17:54:30;0.50;;;0.30;;
18857;SDS011;9558;50.178;8.370;2023-04-07T17:57:18;0.15;;;0.10;;
18857;SDS011;9558;50.178;8.370;2023-04-07T18:00:07;0.15;;;0.15;;
18857;SDS011;9558;50.178;8.370;2023-04-07T18:02:54;0.10;;;0.05;;
18857;SDS011;9558;50.178;8.370;2023-04-07T18:05:42;0.20;;;0.20;;
18857;SDS011;9558;50.178;8.370;2023-04-07T18:08:29;0.10;;;0.10;;
18857;SDS011;9558;50.178;8.370;2023-04-07T18:11:16;0.73;;;0.30;;
18857;SDS011;9558;50.178;8.370;2023-04-07T18:14:03;0.35;;;0.20;;
18857;SDS011;9558;50.178;8.370;2023-04-07T18:16:51;2.55;;;0.60;;
18857;SDS011;9558;50.178;8.370;2023-04-07T18:19:38;0.20;;;0.20;;
18857;SDS011;9558;50.178;8.370;2023-04-07T18:22:25;0.35;;;0.20;;
18857;SDS011;9558;50.178;8.370;2023-04-07T18:25:13;0.15;;;0.10;;
18857;SDS011;9558;50.178;8.370;2023-04-07T18:27:59;0.30;;;0.30;;
18857;SDS011;9558;50.178;8.370;2023-04-07T18:30:47;0.60;;;0.40;;
18857;SDS011;9558;50.178;8.370;2023-04-07T18:33:35;0.17;;;0.17;;
18857;SDS011;9558;50.178;8.370;2023-04-07T18:36:22;0.20;;;0.15;;
18857;SDS011;9558;50.178;8.370;2023-04-07T18:39:11;0.20;;;0.20;;
18857;SDS011;9558;50.178;8.370;2023-04-07T18:41:58;0.38;;;0.30;;
18857;SDS011;9558;50.178;8.370;2023-04-07T18:47:31;3.95;;;0.50;;
18857;SDS011;9558;50.178;8.370;2023-04-07T18:53:06;0.20;;;0.20;;
18857;SDS011;9558;50.178;8.370;2023-04-07T18:58:39;0.10;;;0.10;;
18857;SDS011;9558;50.178;8.370;2023-04-07T19:01:30;0.40;;;0.30;;
18857;SDS011;9558;50.178;8.370;2023-04-07T19:07:06;0.88;;;0.17;;
18857;SDS011;9558;50.178;8.370;2023-04-07T19:09:53;1.17;;;0.28;;